Patriot — WDC2859 — position and weather

sailwx.info

Track history (hours):
 
Tides and Currents Weather Stations Pressure Air Temp Water Temp Dewpoint Dewpoint Depression Visibility Wind Speed Wind Dir Waves Ship Positions

Patriot

Owner: AMNAV Maritime Corporation, Oakland, CA. More information available from US FCC via Universal Licensing System and Coast Guard Vessel Documentation Center.

Last reported at 2015-Mar-31 21:33 UTC. Time now 2015-Mar-31 22:04 UTC.
Position N 37°49' W 122°19'.

Length 31 m; draft 4.6 m.

Type: Tug. MMSI: 366998680.

Date/timePositionNaut miles runAvg speedWind from/ knotsBaromVisibWave heightAir tempDewpointWater temp
2015-Mar-31 21:33N 37°49' W 122°19'0 0.0
2015-Mar-31 20:34N 37°49' W 122°19'0 0.0
2015-Mar-31 19:34N 37°49' W 122°19'0 0.0
2015-Mar-31 18:33N 37°49' W 122°19'0 0.0
2015-Mar-31 17:33N 37°49' W 122°19'0 0.0
2015-Mar-31 16:34N 37°49' W 122°19'0 0.0
2015-Mar-31 15:33N 37°49' W 122°19'0 0.0
2015-Mar-31 14:33N 37°49' W 122°19'0 0.0
2015-Mar-31 13:34N 37°49' W 122°19'0 0.0
2015-Mar-31 12:34N 37°49' W 122°19'0 0.0
2015-Mar-31 11:33N 37°49' W 122°19'0 0.0
2015-Mar-31 10:33N 37°49' W 122°19'2 1.7
2015-Mar-31 09:33N 37°48' W 122°21'0 0.2
2015-Mar-31 08:33N 37°49' W 122°20'6 5.9
2015-Mar-31 07:33N 37°53' W 122°25'8 8.4
2015-Mar-31 06:33N 38°02' W 122°22'8 7.9
2015-Mar-31 05:33N 38°03' W 122°12'3 2.1
2015-Mar-31 04:15N 38°02' W 122°09'1 1.3
2015-Mar-31 03:33N 38°02' W 122°10'5 5.4
2015-Mar-31 02:33N 38°03' W 122°17'7 6.8
2015-Mar-31 01:33N 38°00' W 122°24'8 8.4
2015-Mar-31 00:33N 37°52' W 122°23'4 4.3
2015-Mar-30 23:32N 37°49' W 122°19'0 0.0
2015-Mar-30 22:33N 37°49' W 122°19'0 0.0
2015-Mar-30 21:34N 37°49' W 122°19'0 0.0
2015-Mar-30 20:34N 37°49' W 122°19'0 0.0
2015-Mar-30 19:33N 37°49' W 122°19'0 0.0
2015-Mar-30 18:34N 37°49' W 122°19'0 0.0
2015-Mar-30 17:34N 37°49' W 122°19'0 0.0
2015-Mar-30 16:34N 37°49' W 122°19'0 0.0
2015-Mar-30 15:33N 37°49' W 122°19'0 0.0
2015-Mar-30 14:34N 37°49' W 122°19'0 0.0
2015-Mar-30 13:34N 37°49' W 122°19'0 0.0
2015-Mar-30 12:34N 37°49' W 122°19'0 0.0
2015-Mar-30 11:33N 37°49' W 122°19'0 0.0
2015-Mar-30 10:33N 37°49' W 122°19'0 0.0
2015-Mar-30 09:34N 37°49' W 122°19'0 0.0
2015-Mar-30 08:33N 37°49' W 122°19'0 0.0
2015-Mar-30 07:33N 37°49' W 122°19'0 0.0
2015-Mar-30 06:33N 37°49' W 122°19'0 0.0
2015-Mar-30 05:33N 37°49' W 122°19'0 0.0
2015-Mar-30 04:33N 37°49' W 122°19'0 0.0
2015-Mar-30 03:33N 37°49' W 122°19'0 0.0
2015-Mar-30 02:33N 37°49' W 122°19'0 0.0
2015-Mar-30 01:33N 37°49' W 122°19'0 0.0
2015-Mar-30 00:33N 37°49' W 122°19'0 0.0
2015-Mar-29 23:33N 37°49' W 122°19'0 0.0
2015-Mar-29 22:33N 37°49' W 122°19'0 0.0
2015-Mar-29 21:33N 37°49' W 122°19'0 0.0
2015-Mar-29 20:33N 37°49' W 122°19'0 0.0
2015-Mar-29 19:33N 37°49' W 122°19'0 0.0
2015-Mar-29 18:33N 37°49' W 122°19'0 0.0
2015-Mar-29 17:34N 37°49' W 122°19'0 0.0
2015-Mar-29 16:33N 37°49' W 122°19'0 0.0
2015-Mar-29 15:33N 37°49' W 122°19'0 0.0
2015-Mar-29 14:33N 37°49' W 122°19'0 0.0
2015-Mar-29 13:33N 37°49' W 122°19'0 0.0
2015-Mar-29 12:33N 37°49' W 122°19'0 0.0
2015-Mar-29 11:33N 37°49' W 122°19'0 0.0
2015-Mar-29 10:33N 37°49' W 122°19'0 0.0
2015-Mar-29 09:33N 37°49' W 122°19'0 0.0
2015-Mar-29 08:33N 37°49' W 122°19'0 0.0
2015-Mar-29 07:33N 37°49' W 122°19'0 0.0
2015-Mar-29 06:33N 37°49' W 122°19'0 0.0
2015-Mar-29 05:34N 37°49' W 122°19'0 0.0
2015-Mar-29 04:33N 37°49' W 122°19'0 0.0
2015-Mar-29 03:33N 37°49' W 122°19'0 0.0
2015-Mar-29 02:33N 37°49' W 122°19'0 0.0
2015-Mar-29 01:33N 37°49' W 122°19'0 0.0
2015-Mar-29 00:33N 37°49' W 122°19'0 0.0
2015-Mar-28 23:33N 37°49' W 122°19'0 0.0
2015-Mar-28 22:33N 37°49' W 122°19'0 0.0
2015-Mar-28 21:34N 37°49' W 122°19'0 0.0
2015-Mar-28 20:33N 37°49' W 122°19'0 0.0
2015-Mar-28 19:33N 37°49' W 122°19'0 0.0
2015-Mar-28 18:34N 37°49' W 122°19'0 0.0
2015-Mar-28 17:33N 37°49' W 122°19'0 0.0
2015-Mar-28 16:33N 37°49' W 122°19'0 0.0
2015-Mar-28 15:33N 37°49' W 122°19'0 0.0
2015-Mar-28 14:33N 37°49' W 122°19'0 0.0
2015-Mar-28 13:34N 37°49' W 122°19'0 0.0
2015-Mar-28 12:33N 37°49' W 122°19'0 0.0
2015-Mar-28 11:34N 37°49' W 122°19'0 0.0
2015-Mar-28 10:33N 37°49' W 122°19'0 0.0
2015-Mar-28 09:33N 37°49' W 122°19'0 0.0
2015-Mar-28 08:33N 37°49' W 122°19'0 0.0
2015-Mar-28 07:33N 37°49' W 122°19'0 0.0
2015-Mar-28 06:33N 37°49' W 122°19'0 0.0
2015-Mar-28 05:33N 37°49' W 122°19'0 0.0
2015-Mar-28 04:33N 37°49' W 122°19'0 0.0
2015-Mar-28 03:33N 37°49' W 122°19'0 0.0
2015-Mar-28 02:33N 37°49' W 122°19'0 0.0
2015-Mar-28 01:33N 37°49' W 122°19'0 0.0
2015-Mar-28 00:33N 37°49' W 122°19'0 0.0
2015-Mar-27 23:33N 37°49' W 122°19'0 0.0
2015-Mar-27 22:33N 37°49' W 122°19'0 0.0
2015-Mar-27 21:33N 37°49' W 122°19'0 0.0
2015-Mar-27 20:33N 37°49' W 122°19'2 1.7
2015-Mar-27 19:30N 37°48' W 122°18'0 0.2
2015-Mar-27 18:33N 37°48' W 122°18'2 1.9
2015-Mar-27 17:33N 37°49' W 122°19'0 0.0
2015-Mar-27 16:33N 37°49' W 122°19'0 0.0
2015-Mar-27 15:33N 37°49' W 122°19'1 0.7
2015-Mar-27 14:34N 37°49' W 122°19'1 0.7
2015-Mar-27 13:34N 37°49' W 122°20'0 0.4
2015-Mar-27 12:33N 37°49' W 122°20'1 0.9
2015-Mar-27 11:33N 37°49' W 122°19'0 0.0
2015-Mar-27 10:33N 37°49' W 122°19'0 0.0
2015-Mar-27 09:34N 37°49' W 122°19'0 0.0
2015-Mar-27 08:33N 37°49' W 122°19'0 0.0
2015-Mar-27 07:33N 37°49' W 122°19'0 0.0
2015-Mar-27 06:34N 37°49' W 122°19'0 0.0
2015-Mar-27 05:34N 37°49' W 122°19'0 0.0
2015-Mar-27 04:34N 37°49' W 122°19'2 1.6
2015-Mar-27 03:33N 37°49' W 122°20'6 6.0
2015-Mar-27 02:33N 37°54' W 122°22'3 2.8
2015-Mar-27 01:33N 37°55' W 122°25'0 0.5
2015-Mar-27 00:33N 37°56' W 122°26'7 7.4
2015-Mar-26 23:33N 38°02' W 122°21'10 0.4
2015-Mar-26 00:14N 38°02' W 122°08'1 0.2
2015-Mar-25 21:32N 38°02' W 122°08'1 0.1
2015-Mar-25 16:32N 38°02' W 122°08'6 0.4
2015-Mar-25 01:31N 38°03' W 122°15'2 0.1
2015-Mar-23 20:28N 38°04' W 122°13'910.1
2015-Mar-23 19:33N 38°00' W 122°24'1010.0
2015-Mar-23 18:33N 37°51' W 122°22'5 4.7
2015-Mar-23 17:33N 37°48' W 122°18'3 3.1
2015-Mar-23 16:33N 37°48' W 122°22'3 2.5
2015-Mar-23 15:34N 37°49' W 122°19'0 0.0
2015-Mar-23 14:33N 37°49' W 122°19'0 0.0
2015-Mar-23 13:33N 37°49' W 122°19'0 0.0
2015-Mar-23 12:33N 37°49' W 122°19'0 0.0
2015-Mar-23 11:33N 37°49' W 122°19'0 0.0
2015-Mar-23 10:33N 37°49' W 122°19'0 0.0
2015-Mar-23 09:33N 37°49' W 122°19'0 0.0
2015-Mar-23 08:33N 37°49' W 122°19'0 0.0
2015-Mar-23 07:33N 37°49' W 122°19'0 0.0
2015-Mar-23 06:33N 37°49' W 122°19'0 0.0
2015-Mar-23 05:33N 37°49' W 122°19'0 0.0
2015-Mar-23 04:33N 37°49' W 122°19'0 0.0
2015-Mar-23 03:33N 37°49' W 122°19'0 0.0
2015-Mar-23 02:33N 37°49' W 122°19'0 0.0
2015-Mar-23 01:33N 37°49' W 122°19'2 1.6
2015-Mar-23 00:33N 37°48' W 122°20'0 0.1
2015-Mar-22 23:33N 37°48' W 122°20'2 1.7
2015-Mar-22 22:33N 37°49' W 122°19'0 0.0
2015-Mar-22 21:33N 37°49' W 122°19'0 0.0
2015-Mar-22 20:33N 37°49' W 122°19'0 0.0
2015-Mar-22 19:33N 37°49' W 122°19'0 0.0
2015-Mar-22 18:33N 37°49' W 122°19'0 0.0
2015-Mar-22 17:33N 37°49' W 122°19'0 0.0
2015-Mar-22 16:33N 37°49' W 122°19'0 0.0
2015-Mar-22 15:33N 37°49' W 122°19'0 0.0
2015-Mar-22 14:33N 37°49' W 122°19'0 0.0
2015-Mar-22 13:33N 37°49' W 122°19'0 0.0
2015-Mar-22 12:33N 37°49' W 122°19'0 0.0
2015-Mar-22 11:33N 37°49' W 122°19'6 5.9
2015-Mar-22 10:34N 37°44' W 122°20'1010.3
2015-Mar-22 09:34N 37°34' W 122°14'4 3.8
2015-Mar-22 08:34N 37°31' W 122°13'4 3.7
2015-Mar-22 07:33N 37°34' W 122°14'5 4.7
2015-Mar-22 06:33N 37°38' W 122°18'1010.2
2015-Mar-22 05:33N 37°47' W 122°21'3 2.6
2015-Mar-22 04:33N 37°49' W 122°19'0 0.0
2015-Mar-22 03:33N 37°49' W 122°19'0 0.0
2015-Mar-22 02:33N 37°49' W 122°19'0 0.0
2015-Mar-22 01:33N 37°49' W 122°19'0 0.0
2015-Mar-22 00:33N 37°49' W 122°19'0 0.0
2015-Mar-21 23:33N 37°49' W 122°19'0 0.0
2015-Mar-21 22:33N 37°49' W 122°19'0 0.0
2015-Mar-21 21:33N 37°49' W 122°19'  
Track history (hours):
 
Tides and Currents Weather Stations Pressure Air Temp Water Temp Dewpoint Dewpoint Depression Visibility Wind Speed Wind Dir Waves Ship Positions

Patriot

Owner: AMNAV Maritime Corporation, Oakland, CA. More information available from US FCC via Universal Licensing System and Coast Guard Vessel Documentation Center.

Last reported at 2015-Mar-31 21:33 UTC. Time now 2015-Mar-31 22:04 UTC.
Position N 37°49' W 122°19'.

Length 31 m; draft 4.6 m.

Type: Tug. MMSI: 366998680.

Date/timePositionNaut miles runAvg speedWind from/ knotsBaromVisibWave heightAir tempDewpointWater temp
2015-Mar-31 21:33N 37°49' W 122°19'0 0.0
2015-Mar-31 20:34N 37°49' W 122°19'0 0.0
2015-Mar-31 19:34N 37°49' W 122°19'0 0.0
2015-Mar-31 18:33N 37°49' W 122°19'0 0.0
2015-Mar-31 17:33N 37°49' W 122°19'0 0.0
2015-Mar-31 16:34N 37°49' W 122°19'0 0.0
2015-Mar-31 15:33N 37°49' W 122°19'0 0.0
2015-Mar-31 14:33N 37°49' W 122°19'0 0.0
2015-Mar-31 13:34N 37°49' W 122°19'0 0.0
2015-Mar-31 12:34N 37°49' W 122°19'0 0.0
2015-Mar-31 11:33N 37°49' W 122°19'0 0.0
2015-Mar-31 10:33N 37°49' W 122°19'2 1.7
2015-Mar-31 09:33N 37°48' W 122°21'0 0.2
2015-Mar-31 08:33N 37°49' W 122°20'6 5.9
2015-Mar-31 07:33N 37°53' W 122°25'8 8.4
2015-Mar-31 06:33N 38°02' W 122°22'8 7.9
2015-Mar-31 05:33N 38°03' W 122°12'3 2.1
2015-Mar-31 04:15N 38°02' W 122°09'1 1.3
2015-Mar-31 03:33N 38°02' W 122°10'5 5.4
2015-Mar-31 02:33N 38°03' W 122°17'7 6.8
2015-Mar-31 01:33N 38°00' W 122°24'8 8.4
2015-Mar-31 00:33N 37°52' W 122°23'4 4.3
2015-Mar-30 23:32N 37°49' W 122°19'0 0.0
2015-Mar-30 22:33N 37°49' W 122°19'0 0.0
2015-Mar-30 21:34N 37°49' W 122°19'0 0.0
2015-Mar-30 20:34N 37°49' W 122°19'0 0.0
2015-Mar-30 19:33N 37°49' W 122°19'0 0.0
2015-Mar-30 18:34N 37°49' W 122°19'0 0.0
2015-Mar-30 17:34N 37°49' W 122°19'0 0.0
2015-Mar-30 16:34N 37°49' W 122°19'0 0.0
2015-Mar-30 15:33N 37°49' W 122°19'0 0.0
2015-Mar-30 14:34N 37°49' W 122°19'0 0.0
2015-Mar-30 13:34N 37°49' W 122°19'0 0.0
2015-Mar-30 12:34N 37°49' W 122°19'0 0.0
2015-Mar-30 11:33N 37°49' W 122°19'0 0.0
2015-Mar-30 10:33N 37°49' W 122°19'0 0.0
2015-Mar-30 09:34N 37°49' W 122°19'0 0.0
2015-Mar-30 08:33N 37°49' W 122°19'0 0.0
2015-Mar-30 07:33N 37°49' W 122°19'0 0.0
2015-Mar-30 06:33N 37°49' W 122°19'0 0.0
2015-Mar-30 05:33N 37°49' W 122°19'0 0.0
2015-Mar-30 04:33N 37°49' W 122°19'0 0.0
2015-Mar-30 03:33N 37°49' W 122°19'0 0.0
2015-Mar-30 02:33N 37°49' W 122°19'0 0.0
2015-Mar-30 01:33N 37°49' W 122°19'0 0.0
2015-Mar-30 00:33N 37°49' W 122°19'0 0.0
2015-Mar-29 23:33N 37°49' W 122°19'0 0.0
2015-Mar-29 22:33N 37°49' W 122°19'0 0.0
2015-Mar-29 21:33N 37°49' W 122°19'0 0.0
2015-Mar-29 20:33N 37°49' W 122°19'0 0.0
2015-Mar-29 19:33N 37°49' W 122°19'0 0.0
2015-Mar-29 18:33N 37°49' W 122°19'0 0.0
2015-Mar-29 17:34N 37°49' W 122°19'0 0.0
2015-Mar-29 16:33N 37°49' W 122°19'0 0.0
2015-Mar-29 15:33N 37°49' W 122°19'0 0.0
2015-Mar-29 14:33N 37°49' W 122°19'0 0.0
2015-Mar-29 13:33N 37°49' W 122°19'0 0.0
2015-Mar-29 12:33N 37°49' W 122°19'0 0.0
2015-Mar-29 11:33N 37°49' W 122°19'0 0.0
2015-Mar-29 10:33N 37°49' W 122°19'0 0.0
2015-Mar-29 09:33N 37°49' W 122°19'0 0.0
2015-Mar-29 08:33N 37°49' W 122°19'0 0.0
2015-Mar-29 07:33N 37°49' W 122°19'0 0.0
2015-Mar-29 06:33N 37°49' W 122°19'0 0.0
2015-Mar-29 05:34N 37°49' W 122°19'0 0.0
2015-Mar-29 04:33N 37°49' W 122°19'0 0.0
2015-Mar-29 03:33N 37°49' W 122°19'0 0.0
2015-Mar-29 02:33N 37°49' W 122°19'0 0.0
2015-Mar-29 01:33N 37°49' W 122°19'0 0.0
2015-Mar-29 00:33N 37°49' W 122°19'0 0.0
2015-Mar-28 23:33N 37°49' W 122°19'0 0.0
2015-Mar-28 22:33N 37°49' W 122°19'0 0.0
2015-Mar-28 21:34N 37°49' W 122°19'0 0.0
2015-Mar-28 20:33N 37°49' W 122°19'0 0.0
2015-Mar-28 19:33N 37°49' W 122°19'0 0.0
2015-Mar-28 18:34N 37°49' W 122°19'0 0.0
2015-Mar-28 17:33N 37°49' W 122°19'0 0.0
2015-Mar-28 16:33N 37°49' W 122°19'0 0.0
2015-Mar-28 15:33N 37°49' W 122°19'0 0.0
2015-Mar-28 14:33N 37°49' W 122°19'0 0.0
2015-Mar-28 13:34N 37°49' W 122°19'0 0.0
2015-Mar-28 12:33N 37°49' W 122°19'0 0.0
2015-Mar-28 11:34N 37°49' W 122°19'0 0.0
2015-Mar-28 10:33N 37°49' W 122°19'0 0.0
2015-Mar-28 09:33N 37°49' W 122°19'0 0.0
2015-Mar-28 08:33N 37°49' W 122°19'0 0.0
2015-Mar-28 07:33N 37°49' W 122°19'0 0.0
2015-Mar-28 06:33N 37°49' W 122°19'0 0.0
2015-Mar-28 05:33N 37°49' W 122°19'0 0.0
2015-Mar-28 04:33N 37°49' W 122°19'0 0.0
2015-Mar-28 03:33N 37°49' W 122°19'0 0.0
2015-Mar-28 02:33N 37°49' W 122°19'0 0.0
2015-Mar-28 01:33N 37°49' W 122°19'0 0.0
2015-Mar-28 00:33N 37°49' W 122°19'0 0.0
2015-Mar-27 23:33N 37°49' W 122°19'0 0.0
2015-Mar-27 22:33N 37°49' W 122°19'0 0.0
2015-Mar-27 21:33N 37°49' W 122°19'0 0.0
2015-Mar-27 20:33N 37°49' W 122°19'2 1.7
2015-Mar-27 19:30N 37°48' W 122°18'0 0.2
2015-Mar-27 18:33N 37°48' W 122°18'2 1.9
2015-Mar-27 17:33N 37°49' W 122°19'0 0.0
2015-Mar-27 16:33N 37°49' W 122°19'0 0.0
2015-Mar-27 15:33N 37°49' W 122°19'1 0.7
2015-Mar-27 14:34N 37°49' W 122°19'1 0.7
2015-Mar-27 13:34N 37°49' W 122°20'0 0.4
2015-Mar-27 12:33N 37°49' W 122°20'1 0.9
2015-Mar-27 11:33N 37°49' W 122°19'0 0.0
2015-Mar-27 10:33N 37°49' W 122°19'0 0.0
2015-Mar-27 09:34N 37°49' W 122°19'0 0.0
2015-Mar-27 08:33N 37°49' W 122°19'0 0.0
2015-Mar-27 07:33N 37°49' W 122°19'0 0.0
2015-Mar-27 06:34N 37°49' W 122°19'0 0.0
2015-Mar-27 05:34N 37°49' W 122°19'0 0.0
2015-Mar-27 04:34N 37°49' W 122°19'2 1.6
2015-Mar-27 03:33N 37°49' W 122°20'6 6.0
2015-Mar-27 02:33N 37°54' W 122°22'3 2.8
2015-Mar-27 01:33N 37°55' W 122°25'0 0.5
2015-Mar-27 00:33N 37°56' W 122°26'7 7.4
2015-Mar-26 23:33N 38°02' W 122°21'10 0.4
2015-Mar-26 00:14N 38°02' W 122°08'1 0.2
2015-Mar-25 21:32N 38°02' W 122°08'1 0.1
2015-Mar-25 16:32N 38°02' W 122°08'6 0.4
2015-Mar-25 01:31N 38°03' W 122°15'2 0.1
2015-Mar-23 20:28N 38°04' W 122°13'910.1
2015-Mar-23 19:33N 38°00' W 122°24'1010.0
2015-Mar-23 18:33N 37°51' W 122°22'5 4.7
2015-Mar-23 17:33N 37°48' W 122°18'3 3.1
2015-Mar-23 16:33N 37°48' W 122°22'3 2.5
2015-Mar-23 15:34N 37°49' W 122°19'0 0.0
2015-Mar-23 14:33N 37°49' W 122°19'0 0.0
2015-Mar-23 13:33N 37°49' W 122°19'0 0.0
2015-Mar-23 12:33N 37°49' W 122°19'0 0.0
2015-Mar-23 11:33N 37°49' W 122°19'0 0.0
2015-Mar-23 10:33N 37°49' W 122°19'0 0.0
2015-Mar-23 09:33N 37°49' W 122°19'0 0.0
2015-Mar-23 08:33N 37°49' W 122°19'0 0.0
2015-Mar-23 07:33N 37°49' W 122°19'0 0.0
2015-Mar-23 06:33N 37°49' W 122°19'0 0.0
2015-Mar-23 05:33N 37°49' W 122°19'0 0.0
2015-Mar-23 04:33N 37°49' W 122°19'0 0.0
2015-Mar-23 03:33N 37°49' W 122°19'0 0.0
2015-Mar-23 02:33N 37°49' W 122°19'0 0.0
2015-Mar-23 01:33N 37°49' W 122°19'2 1.6
2015-Mar-23 00:33N 37°48' W 122°20'0 0.1
2015-Mar-22 23:33N 37°48' W 122°20'2 1.7
2015-Mar-22 22:33N 37°49' W 122°19'0 0.0
2015-Mar-22 21:33N 37°49' W 122°19'0 0.0
2015-Mar-22 20:33N 37°49' W 122°19'0 0.0
2015-Mar-22 19:33N 37°49' W 122°19'0 0.0
2015-Mar-22 18:33N 37°49' W 122°19'0 0.0
2015-Mar-22 17:33N 37°49' W 122°19'0 0.0
2015-Mar-22 16:33N 37°49' W 122°19'0 0.0
2015-Mar-22 15:33N 37°49' W 122°19'0 0.0
2015-Mar-22 14:33N 37°49' W 122°19'0 0.0
2015-Mar-22 13:33N 37°49' W 122°19'0 0.0
2015-Mar-22 12:33N 37°49' W 122°19'0 0.0
2015-Mar-22 11:33N 37°49' W 122°19'6 5.9
2015-Mar-22 10:34N 37°44' W 122°20'1010.3
2015-Mar-22 09:34N 37°34' W 122°14'4 3.8
2015-Mar-22 08:34N 37°31' W 122°13'4 3.7
2015-Mar-22 07:33N 37°34' W 122°14'5 4.7
2015-Mar-22 06:33N 37°38' W 122°18'1010.2
2015-Mar-22 05:33N 37°47' W 122°21'3 2.6
2015-Mar-22 04:33N 37°49' W 122°19'0 0.0
2015-Mar-22 03:33N 37°49' W 122°19'0 0.0
2015-Mar-22 02:33N 37°49' W 122°19'0 0.0
2015-Mar-22 01:33N 37°49' W 122°19'0 0.0
2015-Mar-22 00:33N 37°49' W 122°19'0 0.0
2015-Mar-21 23:33N 37°49' W 122°19'0 0.0
2015-Mar-21 22:33N 37°49' W 122°19'0 0.0
2015-Mar-21 21:33N 37°49' W 122°19'  

Dump ship's entire track history